Time;durP1;ratioP1;P1;durP2;ratioP2;P2;SDS_P1;SDS_P2;PMS_P1;PMS_P2;Temp;Humidity;BMP_temperature;BMP_pressure;BME280_temperature;BME280_humidity;BME280_pressure;Samples;Min_cycle;Max_cycle;Signal;HPM_P1;HPM_P2
2022/02/06 00:05:51;;;;;;;8.37;5.33;;;;;;;-2.26;100.00;100151.38;30761586;28;20058;-83
2022/02/06 00:21:07;;;;;;;13.07;7.43;;;;;;;-2.22;100.00;100140.88;30717846;28;20055;-84
2022/02/06 00:51:40;;;;;;;14.30;7.70;;;;;;;-1.56;100.00;100119.31;30714293;28;19922;-85
2022/02/06 01:06:42;;;;;;;10.27;5.57;;;;;;;-1.44;100.00;100106.00;30700102;28;20071;-84
2022/02/06 01:22:00;;;;;;;12.27;6.07;;;;;;;-1.18;100.00;100092.25;30692998;29;20146;-83
2022/02/06 01:37:21;;;;;;;12.30;6.70;;;;;;;-1.04;100.00;100085.41;30730606;28;20044;-84
2022/02/06 02:09:11;;;;;;;18.00;11.47;;;;;;;-0.89;100.00;100091.09;30714832;28;20077;-84
2022/02/06 03:10:25;;;;;;;15.47;7.17;;;;;;;-0.62;100.00;100052.97;30788075;28;20047;-83
2022/02/06 03:25:27;;;;;;;22.47;8.90;;;;;;;-0.64;100.00;100041.84;30672897;29;20150;-85
2022/02/06 03:40:35;;;;;;;13.87;8.13;;;;;;;-0.57;100.00;100058.03;30733077;29;20086;-85
2022/02/06 03:55:37;;;;;;;18.67;9.17;;;;;;;-0.51;100.00;100062.00;30779460;29;20536;-85
2022/02/06 04:11:08;;;;;;;17.87;8.73;;;;;;;-0.52;100.00;100089.78;30806356;28;20436;-85
2022/02/06 04:26:10;;;;;;;17.80;9.00;;;;;;;-0.60;100.00;100104.06;30833143;28;20082;-84
2022/02/06 05:12:25;;;;;;;22.07;10.83;;;;;;;-0.83;100.00;100135.84;30742184;28;20098;-85
2022/02/06 05:27:26;;;;;;;17.67;9.07;;;;;;;-0.66;100.00;100145.41;30714114;28;20078;-85
2022/02/06 05:42:26;;;;;;;21.60;9.93;;;;;;;-0.58;100.00;100152.47;30781119;28;20414;-84
2022/02/06 05:57:28;;;;;;;19.63;10.40;;;;;;;-0.11;100.00;100159.75;30736754;29;20047;-86
2022/02/06 06:12:30;;;;;;;17.53;10.07;;;;;;;1.92;96.62;100159.22;30744322;28;20139;-84
2022/02/06 06:27:52;;;;;;;20.87;10.07;;;;;;;3.93;79.06;100154.00;30819880;28;20047;-81
2022/02/06 06:42:54;;;;;;;18.27;9.10;;;;;;;5.00;80.07;100183.06;30853835;28;20078;-82
2022/02/06 06:58:06;;;;;;;18.50;10.10;;;;;;;5.93;69.90;100196.75;30778914;28;20050;-81
2022/02/06 07:13:08;;;;;;;21.13;9.00;;;;;;;6.68;69.12;100189.38;30760519;28;20147;-83
2022/02/06 07:28:16;;;;;;;14.87;8.43;;;;;;;7.39;61.85;100189.09;30761058;28;20063;-82
2022/02/06 07:43:17;;;;;;;15.03;7.67;;;;;;;8.35;58.53;100210.06;30714637;28;20517;-83
2022/02/06 07:58:20;;;;;;;15.67;7.77;;;;;;;9.23;60.00;100225.38;30714185;28;20429;-84
2022/02/06 08:13:26;;;;;;;14.47;7.37;;;;;;;9.71;57.93;100221.66;30719293;29;20147;-81
2022/02/06 08:28:28;;;;;;;15.43;7.40;;;;;;;10.09;52.22;100229.63;30723960;28;20130;-80
2022/02/06 08:43:30;;;;;;;17.20;7.60;;;;;;;9.98;55.94;100237.16;30722965;29;20135;-80
2022/02/06 08:58:32;;;;;;;13.17;7.17;;;;;;;9.54;55.69;100255.19;30714480;28;20052;-79
2022/02/06 09:13:34;;;;;;;12.90;7.13;;;;;;;9.59;56.83;100238.47;30687198;29;20155;-81
2022/02/06 09:28:36;;;;;;;17.07;7.57;;;;;;;8.12;64.62;100256.59;30758008;28;20070;-82
2022/02/06 09:43:39;;;;;;;18.43;7.80;;;;;;;6.84;66.79;100262.59;30722420;28;20055;-83
2022/02/06 10:13:47;;;;;;;12.40;6.67;;;;;;;6.76;73.17;100244.88;30749352;28;20086;-84
2022/02/06 10:29:09;;;;;;;12.27;4.77;;;;;;;7.32;66.31;100260.13;30786526;28;20062;-82
2022/02/06 10:44:12;;;;;;;10.67;5.07;;;;;;;6.52;70.76;100268.03;30785842;29;20125;-80
2022/02/06 10:59:14;;;;;;;13.03;5.33;;;;;;;6.27;71.90;100278.03;30773177;28;20349;-82
2022/02/06 11:14:22;;;;;;;14.70;6.47;;;;;;;5.88;71.56;100267.19;30759059;28;20147;-82
2022/02/06 11:29:24;;;;;;;14.37;6.20;;;;;;;5.79;74.24;100271.00;30835015;28;21103;-81
2022/02/06 11:44:51;;;;;;;14.30;5.50;;;;;;;6.45;69.48;100276.88;30775114;28;20051;-82
2022/02/06 12:00:06;;;;;;;13.30;7.22;;;;;;;6.31;71.80;100265.34;30799988;28;20070;-82
2022/02/06 12:15:26;;;;;;;14.70;6.57;;;;;;;7.33;66.94;100277.09;30819150;28;20095;-83
2022/02/06 12:30:31;;;;;;;12.50;6.33;;;;;;;8.75;64.03;100276.19;30769589;28;20079;-83
2022/02/06 12:45:33;;;;;;;11.70;7.17;;;;;;;7.18;69.42;100287.94;30745135;28;20119;-84
2022/02/06 13:00:43;;;;;;;15.00;7.83;;;;;;;5.97;76.00;100289.16;30776299;28;20086;-82
2022/02/06 13:15:56;;;;;;;17.00;8.33;;;;;;;5.58;76.36;100297.88;30684672;28;20055;-85
2022/02/06 13:46:17;;;;;;;16.63;7.13;;;;;;;4.53;81.67;100314.94;30716697;28;20078;-80
2022/02/06 14:01:19;;;;;;;14.43;6.93;;;;;;;4.49;84.59;100324.91;30715087;28;20044;-82
2022/02/06 14:16:21;;;;;;;13.13;6.40;;;;;;;4.23;83.54;100317.75;30718397;28;20075;-83
2022/02/06 14:31:33;;;;;;;10.00;5.33;;;;;;;4.15;85.47;100327.66;30717272;28;20375;-82
2022/02/06 14:46:36;;;;;;;11.97;6.87;;;;;;;3.92;86.28;100335.84;30726228;28;20051;-78
2022/02/06 15:01:39;;;;;;;15.77;7.17;;;;;;;3.69;88.81;100344.03;30718979;28;20487;-80
2022/02/06 15:16:44;;;;;;;13.47;6.53;;;;;;;3.31;89.28;100345.06;30728331;28;20055;-79
2022/02/06 15:31:46;;;;;;;20.67;8.30;;;;;;;2.84;91.92;100355.50;30730613;28;20051;-79
2022/02/06 15:46:50;;;;;;;15.63;8.63;;;;;;;2.68;96.83;100361.00;30739671;28;20067;-77
2022/02/06 16:01:54;;;;;;;25.23;11.13;;;;;;;2.46;94.40;100364.44;30717533;28;20047;-82
2022/02/06 16:16:56;;;;;;;18.33;10.73;;;;;;;2.12;96.99;100371.50;30732799;28;20055;-82
2022/02/06 16:31:58;;;;;;;27.40;12.17;;;;;;;1.94;96.00;100387.22;30723370;28;20414;-81
2022/02/06 16:47:00;;;;;;;21.97;9.40;;;;;;;1.78;96.00;100394.53;30722604;28;20050;-82
2022/02/06 17:02:02;;;;;;;23.20;9.60;;;;;;;1.70;96.51;100405.09;30730459;28;20098;-84
2022/02/06 17:17:06;;;;;;;19.43;9.17;;;;;;;1.60;96.16;100399.53;30720233;28;20059;-81
2022/02/06 17:32:08;;;;;;;25.70;10.40;;;;;;;1.59;96.03;100408.69;30720594;28;20089;-80
2022/02/06 17:47:09;;;;;;;21.83;10.20;;;;;;;1.49;97.13;100410.00;30706555;28;20065;-82
2022/02/06 18:02:13;;;;;;;21.03;10.93;;;;;;;1.64;95.13;100409.19;30719519;28;20165;-83
2022/02/06 18:17:20;;;;;;;28.50;14.37;;;;;;;1.76;96.30;100402.16;30716221;28;20142;-81
2022/02/06 18:32:22;;;;;;;44.80;22.73;;;;;;;1.73;94.12;100400.94;30745090;29;20621;-81
2022/02/06 18:47:28;;;;;;;27.17;13.93;;;;;;;1.68;95.17;100404.66;30716162;29;20082;-85
2022/02/06 19:02:30;;;;;;;22.03;11.70;;;;;;;1.63;94.62;100401.50;30754047;28;20145;-82
2022/02/06 19:17:32;;;;;;;30.50;14.37;;;;;;;1.69;95.44;100400.88;30727141;28;20062;-85
2022/02/06 19:32:34;;;;;;;28.07;12.53;;;;;;;1.56;96.12;100410.16;30732209;28;20118;-85
2022/02/06 19:47:36;;;;;;;20.30;10.63;;;;;;;1.43;96.13;100403.34;30729895;28;20048;-82
2022/02/06 20:02:40;;;;;;;19.83;10.37;;;;;;;1.32;95.08;100394.34;30729793;28;20066;-83
2022/02/06 20:17:42;;;;;;;22.10;9.70;;;;;;;1.09;97.51;100382.72;30725352;28;20148;-85
2022/02/06 20:32:44;;;;;;;17.87;9.00;;;;;;;0.98;97.12;100372.56;30746040;28;20059;-82
2022/02/06 20:47:45;;;;;;;17.47;7.60;;;;;;;0.89;96.38;100361.28;30722436;28;20394;-82
2022/02/06 21:02:47;;;;;;;13.77;5.97;;;;;;;0.82;95.01;100361.13;30703321;28;20487;-82
2022/02/06 21:17:49;;;;;;;9.70;5.73;;;;;;;0.72;94.80;100361.63;30726528;28;20469;-80
2022/02/06 21:32:51;;;;;;;6.70;4.63;;;;;;;0.62;95.11;100351.47;30681455;28;20133;-81
2022/02/06 21:47:53;;;;;;;13.40;4.73;;;;;;;0.55;94.93;100332.59;30689606;28;20059;-84
2022/02/06 22:02:55;;;;;;;6.37;3.63;;;;;;;0.57;95.22;100317.00;30754506;28;20569;-79
2022/02/06 22:33:18;;;;;;;10.13;5.10;;;;;;;0.71;97.70;100279.16;30731083;28;20051;-83
2022/02/06 22:48:20;;;;;;;9.90;5.30;;;;;;;0.81;96.27;100273.25;30742892;28;20138;-80
2022/02/06 23:03:21;;;;;;;13.90;4.93;;;;;;;1.12;97.38;100272.41;30760463;28;20173;-80
2022/02/06 23:18:26;;;;;;;10.07;5.10;;;;;;;1.30;98.89;100257.50;30731241;28;20071;-81
2022/02/06 23:33:29;;;;;;;10.43;5.07;;;;;;;1.22;100.00;100240.53;30746321;28;20062;-80
2022/02/06 23:48:31;;;;;;;9.17;4.60;;;;;;;1.10;100.00;100229.22;30722291;29;20407;-80
